Time;durP1;ratioP1;P1;durP2;ratioP2;P2;SDS_P1;SDS_P2;PMS_P1;PMS_P2;Temp;Humidity;BMP_temperature;BMP_pressure;BME280_temperature;BME280_humidity;BME280_pressure;Samples;Min_cycle;Max_cycle;Signal;HPM_P1;HPM_P2
2023/02/07 00:01:09;;;;;;;6.67;4.47;;;;;;;;;;4996126;28;20229;-86
2023/02/07 00:03:39;;;;;;;6.47;4.67;;;;;;;;;;4987797;28;20247;-85
2023/02/07 00:06:10;;;;;;;6.37;5.03;;;;;;;;;;4941548;28;20589;-85
2023/02/07 00:08:36;;;;;;;5.57;4.83;;;;;;;;;;4976731;28;20574;-86
2023/02/07 00:11:05;;;;;;;5.57;5.03;;;;;;;;;;5006880;28;20245;-84
2023/02/07 00:13:31;;;;;;;5.33;4.73;;;;;;;;;;4977051;28;20239;-85
2023/02/07 00:15:58;;;;;;;5.60;5.10;;;;;;;;;;5007523;28;20221;-84
2023/02/07 00:18:24;;;;;;;6.70;5.60;;;;;;;;;;4979423;28;20288;-85
2023/02/07 00:20:59;;;;;;;6.60;5.47;;;;;;;;;;4994398;28;20315;-86
2023/02/07 00:23:25;;;;;;;6.20;5.57;;;;;;;;;;5001963;28;20276;-83
2023/02/07 00:25:51;;;;;;;6.20;5.30;;;;;;;;;;4975084;28;20224;-84
2023/02/07 00:28:19;;;;;;;6.20;5.60;;;;;;;;;;4978687;28;20243;-85
2023/02/07 00:30:45;;;;;;;6.60;5.43;;;;;;;;;;4979089;28;20241;-86
2023/02/07 00:33:13;;;;;;;6.20;5.23;;;;;;;;;;4991042;28;20232;-84
2023/02/07 00:35:39;;;;;;;6.07;5.47;;;;;;;;;;4970014;28;20361;-85
2023/02/07 00:38:08;;;;;;;6.33;5.47;;;;;;;;;;4984861;28;20213;-86
2023/02/07 00:40:34;;;;;;;6.97;4.87;;;;;;;;;;4986733;28;20237;-85
2023/02/07 00:42:59;;;;;;;6.07;5.23;;;;;;;;;;4951203;28;20273;-86
2023/02/07 00:45:25;;;;;;;5.53;4.87;;;;;;;;;;4990978;28;20225;-86
2023/02/07 00:47:53;;;;;;;6.40;5.17;;;;;;;;;;4975599;28;20312;-84
2023/02/07 00:50:19;;;;;;;6.23;5.07;;;;;;;;;;4991999;28;20284;-84
2023/02/07 00:52:45;;;;;;;5.33;4.83;;;;;;;;;;4990169;28;20638;-85
2023/02/07 00:55:15;;;;;;;5.57;5.07;;;;;;;;;;4992865;28;20224;-83
2023/02/07 00:57:41;;;;;;;6.43;5.17;;;;;;;;;;5003044;28;20226;-82
2023/02/07 01:00:09;;;;;;;6.60;4.83;;;;;;;;;;4953406;28;20590;-84
2023/02/07 01:02:37;;;;;;;8.10;5.40;;;;;;;;;;4961475;28;20225;-84
2023/02/07 01:05:03;;;;;;;6.37;5.57;;;;;;;;;;4957995;28;20218;-85
2023/02/07 01:07:28;;;;;;;5.87;5.27;;;;;;;;;;4967171;28;20229;-83
2023/02/07 01:09:54;;;;;;;7.83;6.00;;;;;;;;;;4954683;28;20814;-85
2023/02/07 01:12:21;;;;;;;5.63;5.13;;;;;;;;;;4962670;28;20309;-86
2023/02/07 01:14:52;;;;;;;8.40;6.17;;;;;;;;;;4963440;28;20217;-84
2023/02/07 01:17:20;;;;;;;6.53;5.93;;;;;;;;;;4969717;28;20273;-86
2023/02/07 01:19:48;;;;;;;7.13;6.43;;;;;;;;;;4986368;28;20282;-85
2023/02/07 01:22:17;;;;;;;8.07;6.80;;;;;;;;;;4989221;28;20218;-86
2023/02/07 01:24:45;;;;;;;8.67;6.53;;;;;;;;;;4975676;28;20313;-86
2023/02/07 01:27:13;;;;;;;6.77;6.17;;;;;;;;;;4974395;28;20722;-86
2023/02/07 01:29:39;;;;;;;6.77;6.13;;;;;;;;;;4960976;28;20226;-84
2023/02/07 01:32:04;;;;;;;9.87;6.87;;;;;;;;;;5005434;28;20218;-82
2023/02/07 01:34:30;;;;;;;8.23;7.43;;;;;;;;;;4991387;28;20250;-81
2023/02/07 01:36:55;;;;;;;7.70;6.87;;;;;;;;;;4965112;28;20784;-83
2023/02/07 01:39:21;;;;;;;7.53;6.80;;;;;;;;;;4966318;28;20231;-83
2023/02/07 01:41:49;;;;;;;7.37;6.67;;;;;;;;;;4985819;28;20285;-82
2023/02/07 01:44:23;;;;;;;8.00;7.20;;;;;;;;;;4962224;28;20221;-85
2023/02/07 01:46:51;;;;;;;9.03;7.73;;;;;;;;;;5005125;28;20289;-86
2023/02/07 01:49:22;;;;;;;7.47;6.77;;;;;;;;;;4984100;28;20221;-86
2023/02/07 01:51:53;;;;;;;8.23;7.40;;;;;;;;;;4986943;28;20221;-85
2023/02/07 01:54:18;;;;;;;8.60;7.80;;;;;;;;;;4989671;28;20637;-83
2023/02/07 01:56:46;;;;;;;8.43;7.60;;;;;;;;;;4986309;28;20237;-85
2023/02/07 01:59:14;;;;;;;7.47;6.80;;;;;;;;;;4991116;28;20222;-84
2023/02/07 02:01:42;;;;;;;8.80;7.90;;;;;;;;;;4968433;28;20316;-86
2023/02/07 02:04:08;;;;;;;7.97;7.17;;;;;;;;;;5006877;28;20244;-86
2023/02/07 02:06:33;;;;;;;8.63;7.83;;;;;;;;;;4985650;28;20225;-86
2023/02/07 02:09:00;;;;;;;8.43;7.53;;;;;;;;;;5007891;28;20608;-86
2023/02/07 02:12:03;;;;;;;7.20;6.50;;;;;;;;;;4960778;28;20221;-85
2023/02/07 02:14:53;;;;;;;8.67;7.67;;;;;;;;;;5003616;28;20232;-86
2023/02/07 02:17:36;;;;;;;7.10;6.40;;;;;;;;;;5004214;28;20217;-85
2023/02/07 02:20:23;;;;;;;7.47;6.77;;;;;;;;;;4986616;28;20491;-84
2023/02/07 02:23:16;;;;;;;7.47;6.73;;;;;;;;;;4988386;28;20234;-86
2023/02/07 02:26:03;;;;;;;8.97;7.07;;;;;;;;;;4990864;28;20275;-83
2023/02/07 02:28:50;;;;;;;8.00;7.27;;;;;;;;;;4991073;28;20521;-82
2023/02/07 02:31:23;;;;;;;7.90;7.10;;;;;;;;;;4976967;28;20222;-87
2023/02/07 02:34:40;;;;;;;6.97;6.37;;;;;;;;;;4993402;28;20234;-84
2023/02/07 02:37:30;;;;;;;8.00;7.20;;;;;;;;;;4976184;28;20232;-86
2023/02/07 02:40:22;;;;;;;7.37;6.67;;;;;;;;;;4961920;28;20233;-86
2023/02/07 02:43:02;;;;;;;7.70;6.60;;;;;;;;;;4980960;28;20233;-86
2023/02/07 02:45:40;;;;;;;7.63;6.83;;;;;;;;;;4994072;28;20233;-82
2023/02/07 02:48:07;;;;;;;7.73;7.00;;;;;;;;;;4991061;28;20221;-86
2023/02/07 02:50:33;;;;;;;7.87;7.07;;;;;;;;;;4989037;28;20761;-86
2023/02/07 02:53:01;;;;;;;8.17;7.40;;;;;;;;;;4958169;28;20229;-86
2023/02/07 02:55:48;;;;;;;7.67;6.97;;;;;;;;;;4987378;28;20247;-83
2023/02/07 02:58:27;;;;;;;10.23;7.83;;;;;;;;;;4974740;28;20222;-86
2023/02/07 03:01:13;;;;;;;8.10;7.30;;;;;;;;;;4987106;28;20218;-86
2023/02/07 03:04:12;;;;;;;8.97;7.67;;;;;;;;;;4973249;28;20237;-86
2023/02/07 03:06:49;;;;;;;7.50;6.80;;;;;;;;;;5021681;28;20225;-85
2023/02/07 03:09:29;;;;;;;7.73;7.03;;;;;;;;;;4988550;28;20217;-86
2023/02/07 03:12:05;;;;;;;9.37;8.30;;;;;;;;;;4990535;28;20268;-84
2023/02/07 03:14:51;;;;;;;8.60;7.63;;;;;;;;;;4999738;28;20237;-85
2023/02/07 03:17:24;;;;;;;8.13;7.30;;;;;;;;;;4969461;28;20739;-86
2023/02/07 03:19:53;;;;;;;9.53;8.50;;;;;;;;;;4959931;28;20399;-85
2023/02/07 03:22:19;;;;;;;8.53;7.63;;;;;;;;;;5005777;28;20224;-85
2023/02/07 03:24:51;;;;;;;8.03;7.23;;;;;;;;;;4970731;28;20228;-84
2023/02/07 03:27:19;;;;;;;9.20;8.20;;;;;;;;;;4972073;28;20222;-83
2023/02/07 03:29:46;;;;;;;9.13;7.50;;;;;;;;;;4955365;28;20237;-83
2023/02/07 03:32:14;;;;;;;9.27;8.20;;;;;;;;;;4962096;28;20237;-83
2023/02/07 03:35:08;;;;;;;8.53;7.73;;;;;;;;;;4964121;28;20238;-82
2023/02/07 03:37:47;;;;;;;10.77;7.57;;;;;;;;;;4989423;28;20576;-85
2023/02/07 03:40:12;;;;;;;8.13;7.33;;;;;;;;;;5000193;28;20260;-84
2023/02/07 03:42:45;;;;;;;8.47;7.50;;;;;;;;;;4983148;28;20240;-84
2023/02/07 03:45:13;;;;;;;9.10;8.07;;;;;;;;;;4959162;28;20231;-81
2023/02/07 03:47:38;;;;;;;8.47;7.63;;;;;;;;;;4940083;28;20241;-85
2023/02/07 03:50:04;;;;;;;8.10;6.70;;;;;;;;;;4974233;28;20228;-84
2023/02/07 03:52:30;;;;;;;9.97;7.63;;;;;;;;;;4971628;28;20302;-85
2023/02/07 03:54:55;;;;;;;7.97;7.20;;;;;;;;;;4980957;28;20634;-86
2023/02/07 03:57:21;;;;;;;9.23;7.77;;;;;;;;;;4989709;28;20224;-84
2023/02/07 03:59:46;;;;;;;8.83;7.93;;;;;;;;;;4977704;28;20686;-84
2023/02/07 04:02:15;;;;;;;8.37;7.57;;;;;;;;;;4967847;28;20226;-82
2023/02/07 04:04:43;;;;;;;7.57;6.87;;;;;;;;;;4972385;28;20221;-83
2023/02/07 04:07:10;;;;;;;7.57;6.80;;;;;;;;;;4993872;28;20236;-83
2023/02/07 04:09:35;;;;;;;8.53;7.63;;;;;;;;;;4993737;28;20660;-83
2023/02/07 04:12:03;;;;;;;7.53;6.83;;;;;;;;;;4953063;28;20217;-83
2023/02/07 04:14:31;;;;;;;8.83;7.90;;;;;;;;;;4962821;28;20229;-81
2023/02/07 04:17:01;;;;;;;8.63;7.43;;;;;;;;;;4991030;28;20226;-83
2023/02/07 04:19:27;;;;;;;8.97;8.07;;;;;;;;;;4994679;28;20312;-85
2023/02/07 04:21:54;;;;;;;10.10;7.77;;;;;;;;;;4942944;28;20227;-84
2023/02/07 04:24:20;;;;;;;7.77;7.03;;;;;;;;;;4986145;28;20225;-85
2023/02/07 04:26:48;;;;;;;8.07;7.33;;;;;;;;;;5003794;28;20266;-85
2023/02/07 04:29:13;;;;;;;10.80;7.93;;;;;;;;;;4971181;28;20218;-86
2023/02/07 04:31:41;;;;;;;8.53;7.63;;;;;;;;;;4988649;28;20229;-85
2023/02/07 04:34:08;;;;;;;9.03;8.13;;;;;;;;;;4945437;28;20225;-85
2023/02/07 04:36:34;;;;;;;9.87;8.20;;;;;;;;;;4963530;28;20777;-85
2023/02/07 04:39:01;;;;;;;9.33;7.83;;;;;;;;;;4972918;28;20214;-84
2023/02/07 04:41:28;;;;;;;8.83;7.93;;;;;;;;;;5007383;28;20218;-83
2023/02/07 04:43:54;;;;;;;8.60;7.80;;;;;;;;;;4977143;28;20218;-85
2023/02/07 04:46:20;;;;;;;8.83;8.00;;;;;;;;;;4948369;28;20222;-83
2023/02/07 04:48:50;;;;;;;8.70;7.60;;;;;;;;;;4961414;28;20221;-85
2023/02/07 04:51:15;;;;;;;9.23;7.83;;;;;;;;;;4967852;28;20236;-86
2023/02/07 04:53:41;;;;;;;8.40;7.50;;;;;;;;;;4971626;28;20228;-84
2023/02/07 04:56:09;;;;;;;8.70;7.80;;;;;;;;;;4974693;28;20214;-86
2023/02/07 04:58:39;;;;;;;10.50;7.87;;;;;;;;;;4985205;28;20308;-84
2023/02/07 05:01:07;;;;;;;9.13;8.23;;;;;;;;;;5004140;28;20283;-83
2023/02/07 05:03:35;;;;;;;9.13;8.20;;;;;;;;;;4953242;28;20233;-84
2023/02/07 05:06:03;;;;;;;9.37;8.37;;;;;;;;;;4972616;28;20282;-83
2023/02/07 05:08:31;;;;;;;9.63;8.33;;;;;;;;;;4976393;28;20221;-83
2023/02/07 05:10:59;;;;;;;11.00;9.43;;;;;;;;;;4989154;28;20333;-85
2023/02/07 05:13:27;;;;;;;10.60;9.50;;;;;;;;;;5012983;28;20226;-85
2023/02/07 05:15:52;;;;;;;10.73;9.50;;;;;;;;;;4993409;28;20221;-84
2023/02/07 05:18:18;;;;;;;10.90;9.47;;;;;;;;;;4976678;28;20240;-84
2023/02/07 05:20:48;;;;;;;10.50;9.40;;;;;;;;;;4979932;28;20234;-85
2023/02/07 05:23:14;;;;;;;12.43;10.77;;;;;;;;;;4976292;28;20213;-83
2023/02/07 05:25:41;;;;;;;22.73;17.20;;;;;;;;;;4972611;28;20234;-83
2023/02/07 05:28:08;;;;;;;24.30;20.30;;;;;;;;;;4968208;28;20229;-82
2023/02/07 05:30:35;;;;;;;17.77;14.70;;;;;;;;;;4973541;28;20241;-83
2023/02/07 05:33:06;;;;;;;13.67;11.73;;;;;;;;;;4977440;28;20299;-83
2023/02/07 05:35:38;;;;;;;14.07;12.53;;;;;;;;;;4974474;28;20825;-84
2023/02/07 05:38:10;;;;;;;13.13;10.13;;;;;;;;;;4993640;28;20229;-84
2023/02/07 05:40:36;;;;;;;12.57;10.83;;;;;;;;;;4978132;28;20329;-84
2023/02/07 05:43:04;;;;;;;10.00;9.10;;;;;;;;;;4991655;28;20221;-85
2023/02/07 05:45:29;;;;;;;12.00;10.67;;;;;;;;;;4974923;28;20225;-83
2023/02/07 05:47:59;;;;;;;11.47;10.30;;;;;;;;;;4990409;28;20214;-82
2023/02/07 05:50:31;;;;;;;10.63;9.47;;;;;;;;;;4976760;28;20240;-83
2023/02/07 05:53:11;;;;;;;12.33;9.73;;;;;;;;;;5029617;28;20217;-81
2023/02/07 05:55:39;;;;;;;10.83;9.73;;;;;;;;;;4969771;28;20269;-82
2023/02/07 05:58:05;;;;;;;10.60;9.53;;;;;;;;;;5001900;28;20225;-85
2023/02/07 06:00:33;;;;;;;11.23;9.70;;;;;;;;;;5002659;28;20234;-85
2023/02/07 06:03:01;;;;;;;10.67;9.57;;;;;;;;;;4966637;28;20217;-83
2023/02/07 06:05:30;;;;;;;10.50;9.47;;;;;;;;;;5005521;28;20248;-85
2023/02/07 06:07:58;;;;;;;11.50;9.93;;;;;;;;;;5000242;28;20210;-82
2023/02/07 06:10:23;;;;;;;12.70;10.00;;;;;;;;;;4974714;28;20304;-85
2023/02/07 06:12:51;;;;;;;12.20;10.13;;;;;;;;;;4989576;28;20234;-85
2023/02/07 06:15:19;;;;;;;10.53;9.53;;;;;;;;;;4991705;28;20233;-84
2023/02/07 06:17:45;;;;;;;12.00;10.80;;;;;;;;;;4977533;28;20222;-84
2023/02/07 06:20:13;;;;;;;12.53;9.93;;;;;;;;;;4961985;28;20304;-84
2023/02/07 06:22:38;;;;;;;12.20;10.90;;;;;;;;;;4989579;28;20315;-84
2023/02/07 06:25:05;;;;;;;11.53;9.83;;;;;;;;;;4961851;28;20229;-85
2023/02/07 06:27:31;;;;;;;12.70;10.63;;;;;;;;;;4981644;28;20225;-85
2023/02/07 06:29:57;;;;;;;13.53;10.73;;;;;;;;;;4978707;28;20232;-84
2023/02/07 06:32:25;;;;;;;12.50;10.67;;;;;;;;;;4971179;28;20322;-84
2023/02/07 06:34:53;;;;;;;10.50;9.50;;;;;;;;;;4997860;28;20227;-82
2023/02/07 06:37:20;;;;;;;11.37;10.17;;;;;;;;;;4971006;28;20226;-85
2023/02/07 06:39:46;;;;;;;13.07;10.23;;;;;;;;;;4967865;28;20238;-84
2023/02/07 06:42:14;;;;;;;11.47;10.37;;;;;;;;;;4968927;28;20727;-84
2023/02/07 06:44:41;;;;;;;11.70;10.50;;;;;;;;;;4976989;28;20230;-84
2023/02/07 06:47:12;;;;;;;11.73;10.07;;;;;;;;;;4991142;28;20686;-83
2023/02/07 06:49:40;;;;;;;12.50;10.17;;;;;;;;;;4974244;28;20307;-84
2023/02/07 06:52:08;;;;;;;10.87;9.60;;;;;;;;;;4993710;28;20217;-85
2023/02/07 06:54:34;;;;;;;11.57;9.90;;;;;;;;;;4994200;28;20264;-83
2023/02/07 06:57:02;;;;;;;11.70;10.33;;;;;;;;;;4988180;28;20217;-85
2023/02/07 06:59:30;;;;;;;11.13;10.03;;;;;;;;;;4995043;28;20235;-84
2023/02/07 07:02:02;;;;;;;10.03;8.97;;;;;;;;;;4988895;28;20218;-84
2023/02/07 07:04:28;;;;;;;12.47;9.70;;;;;;;;;;4962006;28;20229;-82
2023/02/07 07:06:54;;;;;;;11.53;9.93;;;;;;;;;;4957203;28;20222;-85
2023/02/07 07:09:19;;;;;;;13.17;10.60;;;;;;;;;;4959572;28;20621;-84
2023/02/07 07:11:47;;;;;;;11.43;10.27;;;;;;;;;;4971287;28;20930;-84
2023/02/07 07:14:15;;;;;;;11.00;9.37;;;;;;;;;;4938495;28;20221;-85
2023/02/07 07:16:43;;;;;;;13.43;10.43;;;;;;;;;;4947999;28;20237;-84
2023/02/07 07:19:08;;;;;;;12.27;10.00;;;;;;;;;;4989899;28;20225;-84
2023/02/07 07:21:34;;;;;;;12.23;10.70;;;;;;;;;;4957353;28;20237;-84
2023/02/07 07:24:00;;;;;;;14.20;10.20;;;;;;;;;;4950103;28;20214;-84
2023/02/07 07:26:25;;;;;;;12.13;10.03;;;;;;;;;;4981187;28;20221;-82
2023/02/07 07:28:56;;;;;;;11.23;10.07;;;;;;;;;;4961726;28;20229;-84
2023/02/07 07:31:22;;;;;;;12.17;10.87;;;;;;;;;;4957501;28;20233;-84
2023/02/07 07:33:52;;;;;;;11.83;10.53;;;;;;;;;;4972000;28;20230;-82
2023/02/07 07:36:22;;;;;;;11.43;9.77;;;;;;;;;;4961118;28;20229;-85
2023/02/07 07:38:48;;;;;;;12.53;11.17;;;;;;;;;;4965191;28;20225;-85
2023/02/07 07:41:16;;;;;;;13.03;11.37;;;;;;;;;;4955740;28;20237;-83
2023/02/07 07:43:43;;;;;;;12.47;11.17;;;;;;;;;;4978038;28;20228;-83
2023/02/07 07:46:11;;;;;;;11.60;10.50;;;;;;;;;;4986442;28;20229;-83
2023/02/07 07:48:38;;;;;;;19.07;16.10;;;;;;;;;;4961470;28;20225;-82
2023/02/07 07:51:03;;;;;;;12.43;11.17;;;;;;;;;;4987067;28;20213;-83
2023/02/07 07:53:29;;;;;;;13.20;11.80;;;;;;;;;;4982661;28;20217;-83
2023/02/07 07:55:56;;;;;;;13.43;11.63;;;;;;;;;;4955506;28;20244;-84
2023/02/07 07:58:23;;;;;;;14.07;12.57;;;;;;;;;;4985007;28;20226;-81
2023/02/07 08:00:48;;;;;;;13.87;12.50;;;;;;;;;;4998432;28;20300;-82
2023/02/07 08:03:15;;;;;;;13.03;11.73;;;;;;;;;;4963095;28;20222;-83
2023/02/07 08:05:41;;;;;;;13.60;12.20;;;;;;;;;;5020268;28;20251;-83
2023/02/07 08:08:08;;;;;;;13.97;12.57;;;;;;;;;;4974337;28;20213;-83
2023/02/07 08:10:34;;;;;;;14.70;13.03;;;;;;;;;;4987729;28;20230;-84
2023/02/07 08:13:02;;;;;;;16.30;13.13;;;;;;;;;;5005757;28;20228;-82
2023/02/07 08:15:27;;;;;;;15.17;13.50;;;;;;;;;;4958668;28;20229;-82
2023/02/07 08:17:55;;;;;;;15.63;13.97;;;;;;;;;;4977285;28;20877;-83
2023/02/07 08:20:21;;;;;;;17.90;15.60;;;;;;;;;;4971156;28;20228;-83
2023/02/07 08:22:46;;;;;;;18.17;16.27;;;;;;;;;;4970752;28;20226;-82
2023/02/07 08:25:12;;;;;;;18.73;16.80;;;;;;;;;;5001964;28;20221;-79
2023/02/07 08:27:42;;;;;;;17.97;16.07;;;;;;;;;;4976752;28;20234;-82
2023/02/07 08:30:09;;;;;;;22.60;16.10;;;;;;;;;;4978487;28;20217;-82
2023/02/07 08:32:34;;;;;;;19.00;16.40;;;;;;;;;;4989256;28;20224;-81
2023/02/07 08:35:00;;;;;;;19.87;17.77;;;;;;;;;;4991069;28;20217;-84
2023/02/07 08:37:28;;;;;;;24.33;19.73;;;;;;;;;;4965844;28;20229;-82
2023/02/07 08:39:54;;;;;;;20.50;17.00;;;;;;;;;;4967703;28;20264;-83
2023/02/07 08:42:22;;;;;;;36.63;27.03;;;;;;;;;;4959759;28;20222;-83
2023/02/07 08:44:48;;;;;;;22.77;17.63;;;;;;;;;;4970505;28;20701;-82
2023/02/07 08:47:14;;;;;;;19.73;17.63;;;;;;;;;;4978122;28;20218;-81
2023/02/07 08:49:45;;;;;;;19.93;17.93;;;;;;;;;;4989437;28;20221;-83
2023/02/07 08:52:11;;;;;;;20.53;18.43;;;;;;;;;;4963230;28;20225;-82
2023/02/07 08:54:37;;;;;;;20.17;18.17;;;;;;;;;;4997045;28;20935;-80
2023/02/07 08:57:02;;;;;;;20.70;18.60;;;;;;;;;;5012040;28;20221;-82
2023/02/07 08:59:28;;;;;;;17.97;16.17;;;;;;;;;;4994324;28;20229;-82
2023/02/07 09:01:53;;;;;;;20.50;18.43;;;;;;;;;;4976814;28;20236;-81
2023/02/07 09:04:21;;;;;;;20.13;18.07;;;;;;;;;;4987081;28;20225;-83
2023/02/07 09:06:47;;;;;;;22.83;20.53;;;;;;;;;;5002240;28;20225;-83
2023/02/07 09:09:15;;;;;;;20.33;18.20;;;;;;;;;;4989403;28;20244;-81
2023/02/07 09:11:41;;;;;;;22.37;20.10;;;;;;;;;;4989746;28;20235;-82
2023/02/07 09:14:09;;;;;;;21.73;18.80;;;;;;;;;;4974130;28;20217;-83
2023/02/07 09:16:37;;;;;;;18.47;16.60;;;;;;;;;;4989235;28;20262;-82
2023/02/07 09:19:03;;;;;;;20.73;18.60;;;;;;;;;;4978177;28;20336;-82
2023/02/07 09:21:33;;;;;;;19.03;17.17;;;;;;;;;;4976112;28;20222;-82
2023/02/07 09:23:58;;;;;;;21.07;18.97;;;;;;;;;;4980188;28;20571;-81
2023/02/07 09:26:29;;;;;;;19.53;17.60;;;;;;;;;;4977676;28;20247;-82
2023/02/07 09:28:55;;;;;;;18.43;16.57;;;;;;;;;;4982154;28;20644;-81
2023/02/07 09:31:23;;;;;;;23.20;19.43;;;;;;;;;;4993684;28;20228;-82
2023/02/07 09:33:49;;;;;;;20.20;18.20;;;;;;;;;;5025583;28;20636;-82
2023/02/07 09:36:24;;;;;;;21.60;19.40;;;;;;;;;;4990766;28;20225;-82
2023/02/07 09:38:52;;;;;;;19.23;17.33;;;;;;;;;;4989015;28;20376;-82
2023/02/07 09:41:40;;;;;;;18.37;16.47;;;;;;;;;;4966747;28;20250;-82
2023/02/07 09:44:33;;;;;;;18.87;16.93;;;;;;;;;;4975455;28;20225;-85
2023/02/07 09:47:02;;;;;;;17.60;15.80;;;;;;;;;;4972320;28;20248;-82
2023/02/07 09:49:35;;;;;;;17.67;15.97;;;;;;;;;;5002627;28;20233;-84
2023/02/07 09:52:08;;;;;;;17.27;15.57;;;;;;;;;;4987051;28;20577;-83
2023/02/07 09:54:36;;;;;;;16.87;15.23;;;;;;;;;;4957091;28;20236;-81
2023/02/07 09:57:05;;;;;;;17.80;16.10;;;;;;;;;;4997286;28;20252;-82
2023/02/07 09:59:42;;;;;;;17.60;15.37;;;;;;;;;;4965866;28;20233;-82
2023/02/07 10:02:22;;;;;;;16.43;14.73;;;;;;;;;;4986744;28;20250;-80
2023/02/07 10:04:50;;;;;;;16.73;15.03;;;;;;;;;;4973104;28;20226;-84
2023/02/07 10:07:18;;;;;;;16.27;14.77;;;;;;;;;;4982189;28;20273;-83
2023/02/07 10:09:44;;;;;;;15.77;14.27;;;;;;;;;;4994527;28;20333;-81
2023/02/07 10:12:24;;;;;;;17.53;15.73;;;;;;;;;;4993131;28;20229;-81
2023/02/07 10:15:05;;;;;;;16.70;14.83;;;;;;;;;;5010551;28;20233;-85
2023/02/07 10:18:15;;;;;;;16.83;15.07;;;;;;;;;;5013572;28;20236;-77
2023/02/07 10:20:50;;;;;;;15.93;14.43;;;;;;;;;;4988082;28;20288;-82
2023/02/07 10:23:34;;;;;;;15.73;14.13;;;;;;;;;;4953639;28;20248;-84
2023/02/07 10:26:15;;;;;;;14.30;12.80;;;;;;;;;;5009942;28;20224;-83
2023/02/07 10:29:12;;;;;;;14.97;13.60;;;;;;;;;;5004295;28;20229;-83
2023/02/07 10:31:38;;;;;;;15.57;13.93;;;;;;;;;;5018467;28;20333;-83
2023/02/07 10:34:13;;;;;;;14.77;13.37;;;;;;;;;;4974020;28;20249;-83
2023/02/07 10:36:42;;;;;;;14.47;13.03;;;;;;;;;;4990972;28;20228;-80
2023/02/07 10:39:16;;;;;;;15.20;13.63;;;;;;;;;;4960836;28;20225;-83
2023/02/07 10:41:44;;;;;;;14.83;13.33;;;;;;;;;;5003665;28;20603;-83
2023/02/07 10:44:17;;;;;;;15.07;13.57;;;;;;;;;;4996258;28;20213;-81
2023/02/07 10:46:49;;;;;;;14.80;13.30;;;;;;;;;;4989452;28;20235;-83
2023/02/07 10:49:22;;;;;;;14.10;12.67;;;;;;;;;;4971594;28;20221;-82
2023/02/07 10:51:48;;;;;;;13.70;12.30;;;;;;;;;;4988648;28;20251;-82
2023/02/07 10:54:18;;;;;;;13.73;12.33;;;;;;;;;;4974084;28;20213;-82
2023/02/07 10:56:49;;;;;;;13.40;12.10;;;;;;;;;;4972419;28;20702;-81
2023/02/07 10:59:44;;;;;;;18.13;13.80;;;;;;;;;;4960534;28;20222;-82
2023/02/07 11:02:47;;;;;;;12.07;10.93;;;;;;;;;;5022747;28;20226;-81
2023/02/07 11:05:19;;;;;;;11.77;10.67;;;;;;;;;;4951166;28;20224;-81
2023/02/07 11:08:21;;;;;;;12.97;10.70;;;;;;;;;;4980873;28;20229;-83
2023/02/07 11:10:47;;;;;;;11.30;10.20;;;;;;;;;;4980057;28;20244;-83
2023/02/07 11:13:23;;;;;;;12.10;11.00;;;;;;;;;;4970854;28;20283;-81
2023/02/07 11:16:03;;;;;;;12.13;10.93;;;;;;;;;;4961168;28;20248;-80
2023/02/07 11:19:12;;;;;;;11.00;9.93;;;;;;;;;;4986563;28;20225;-83
2023/02/07 11:21:39;;;;;;;10.80;9.90;;;;;;;;;;4986420;28;20317;-82
2023/02/07 11:24:27;;;;;;;10.63;9.73;;;;;;;;;;4964933;28;20234;-83
2023/02/07 11:27:12;;;;;;;11.67;10.47;;;;;;;;;;4977245;28;20225;-83
2023/02/07 11:29:44;;;;;;;11.53;10.53;;;;;;;;;;4978241;28;20324;-82
2023/02/07 11:32:12;;;;;;;10.87;9.97;;;;;;;;;;4988974;28;20222;-83
2023/02/07 11:34:45;;;;;;;10.43;9.53;;;;;;;;;;4969079;28;20592;-84
2023/02/07 11:37:21;;;;;;;10.10;9.10;;;;;;;;;;4988918;28;20217;-81
2023/02/07 11:39:47;;;;;;;9.53;8.63;;;;;;;;;;4983459;28;20801;-82
2023/02/07 11:42:20;;;;;;;9.30;8.40;;;;;;;;;;5012847;28;20224;-80
2023/02/07 11:44:48;;;;;;;9.43;8.53;;;;;;;;;;4979476;28;20885;-80
2023/02/07 11:47:16;;;;;;;9.10;8.30;;;;;;;;;;4979952;28;20223;-80
2023/02/07 11:49:46;;;;;;;8.90;8.10;;;;;;;;;;4972727;28;20290;-80
2023/02/07 11:52:12;;;;;;;9.03;8.23;;;;;;;;;;4987402;28;20227;-81
2023/02/07 11:54:43;;;;;;;8.40;7.70;;;;;;;;;;4968093;28;20237;-81
2023/02/07 11:57:15;;;;;;;8.67;7.93;;;;;;;;;;4995339;28;20221;-82
2023/02/07 12:00:07;;;;;;;7.73;7.03;;;;;;;;;;4997323;28;20252;-80
2023/02/07 12:02:39;;;;;;;7.77;7.07;;;;;;;;;;4977710;28;20313;-83
2023/02/07 12:05:19;;;;;;;8.40;7.63;;;;;;;;;;4961461;28;20242;-83
2023/02/07 12:08:00;;;;;;;7.47;6.77;;;;;;;;;;4968984;28;20229;-82
2023/02/07 12:10:31;;;;;;;8.03;7.33;;;;;;;;;;4985674;28;20220;-83
2023/02/07 12:13:02;;;;;;;7.20;6.60;;;;;;;;;;4981667;28;20226;-83
2023/02/07 12:15:33;;;;;;;7.90;7.20;;;;;;;;;;4980440;28;20232;-83
2023/02/07 12:18:30;;;;;;;8.57;7.77;;;;;;;;;;4990279;28;20225;-82
2023/02/07 12:21:14;;;;;;;7.60;6.87;;;;;;;;;;4967363;28;20234;-81
2023/02/07 12:23:44;;;;;;;8.33;7.53;;;;;;;;;;4975253;28;20311;-83
2023/02/07 12:26:15;;;;;;;8.47;7.67;;;;;;;;;;4991610;28;20311;-82
2023/02/07 12:29:03;;;;;;;9.10;8.30;;;;;;;;;;4970149;28;20222;-80
2023/02/07 12:31:48;;;;;;;9.13;8.27;;;;;;;;;;4974685;28;20218;-83
2023/02/07 12:34:22;;;;;;;8.43;7.63;;;;;;;;;;5001233;28;20209;-80
2023/02/07 12:36:50;;;;;;;9.57;8.70;;;;;;;;;;4990703;28;20222;-80
2023/02/07 12:39:21;;;;;;;9.67;8.67;;;;;;;;;;4977174;28;20271;-81
2023/02/07 12:42:05;;;;;;;9.70;8.80;;;;;;;;;;4976424;28;20245;-81
2023/02/07 12:44:46;;;;;;;9.50;8.73;;;;;;;;;;5009170;28;20230;-81
2023/02/07 12:47:16;;;;;;;9.03;8.23;;;;;;;;;;4977664;28;20222;-83
2023/02/07 12:50:02;;;;;;;8.97;8.17;;;;;;;;;;4995436;28;20234;-82
2023/02/07 12:52:49;;;;;;;8.60;7.80;;;;;;;;;;4976363;28;20225;-83
2023/02/07 12:55:20;;;;;;;8.33;7.63;;;;;;;;;;4997292;28;20309;-81
2023/02/07 12:57:48;;;;;;;6.70;6.10;;;;;;;;;;4991129;28;20237;-84
2023/02/07 13:00:26;;;;;;;6.27;5.67;;;;;;;;;;5013822;28;20241;-83
2023/02/07 13:03:03;;;;;;;6.53;5.57;;;;;;;;;;4964134;28;20349;-83
2023/02/07 13:05:37;;;;;;;6.03;5.47;;;;;;;;;;4980212;28;20240;-84
2023/02/07 13:08:40;;;;;;;7.30;5.77;;;;;;;;;;4998453;28;20279;-83
2023/02/07 13:11:07;;;;;;;7.47;6.77;;;;;;;;;;4993490;28;20234;-82
2023/02/07 13:13:48;;;;;;;12.67;11.03;;;;;;;;;;5032043;28;20233;-84
2023/02/07 13:16:25;;;;;;;10.67;9.63;;;;;;;;;;5013553;28;20217;-83
2023/02/07 13:18:59;;;;;;;6.50;5.63;;;;;;;;;;4982394;28;20248;-83
2023/02/07 13:21:57;;;;;;;7.43;6.10;;;;;;;;;;4983489;28;20226;-83
2023/02/07 13:24:24;;;;;;;7.40;5.37;;;;;;;;;;4990106;28;20221;-81
2023/02/07 13:26:57;;;;;;;6.83;5.37;;;;;;;;;;4969737;28;20599;-84
2023/02/07 13:29:26;;;;;;;6.27;5.03;;;;;;;;;;4978420;28;20241;-83
2023/02/07 13:31:57;;;;;;;8.37;5.07;;;;;;;;;;4978752;28;20260;-83
2023/02/07 13:34:24;;;;;;;4.67;4.27;;;;;;;;;;4993936;28;20225;-83
2023/02/07 13:36:51;;;;;;;5.10;4.60;;;;;;;;;;4992233;28;20241;-83
2023/02/07 13:39:35;;;;;;;6.37;4.83;;;;;;;;;;4963106;28;20246;-83
2023/02/07 13:42:36;;;;;;;5.70;5.20;;;;;;;;;;4998216;28;20758;-82
2023/02/07 13:45:26;;;;;;;4.60;4.20;;;;;;;;;;4909953;29;20327;-83
2023/02/07 13:48:29;;;;;;;4.17;3.77;;;;;;;;;;5014385;28;20284;-83
2023/02/07 13:51:03;;;;;;;3.70;3.37;;;;;;;;;;5000441;28;20774;-82
2023/02/07 13:53:50;;;;;;;4.17;3.87;;;;;;;;;;4964355;28;20721;-80
2023/02/07 14:01:54;;;;;;;4.30;3.90;;;;;;;;;;5008584;28;20240;-83
2023/02/07 14:04:20;;;;;;;4.80;4.40;;;;;;;;;;4964568;28;20242;-82
2023/02/07 14:06:52;;;;;;;4.47;4.07;;;;;;;;;;4963156;28;20233;-82
2023/02/07 14:09:22;;;;;;;5.13;4.63;;;;;;;;;;4990633;28;20257;-83
2023/02/07 14:11:48;;;;;;;4.90;4.00;;;;;;;;;;4978422;28;20237;-83
2023/02/07 14:14:26;;;;;;;4.03;3.67;;;;;;;;;;4983800;28;20593;-81
2023/02/07 14:16:58;;;;;;;4.23;3.90;;;;;;;;;;5002447;28;20324;-82
2023/02/07 14:19:47;;;;;;;3.90;3.60;;;;;;;;;;5025258;28;20224;-82
2023/02/07 14:22:51;;;;;;;4.70;4.20;;;;;;;;;;4978555;28;20420;-80
2023/02/07 14:25:36;;;;;;;4.57;4.17;;;;;;;;;;4976418;28;20213;-81
2023/02/07 14:28:01;;;;;;;5.27;4.00;;;;;;;;;;4977849;28;20271;-83
2023/02/07 14:30:29;;;;;;;5.10;4.43;;;;;;;;;;4977588;28;20292;-83
2023/02/07 14:33:13;;;;;;;4.30;3.90;;;;;;;;;;4980499;28;20233;-83
2023/02/07 14:36:13;;;;;;;4.47;4.07;;;;;;;;;;5003640;28;20229;-84
2023/02/07 14:38:46;;;;;;;5.00;4.60;;;;;;;;;;4996052;28;20222;-84
2023/02/07 14:41:14;;;;;;;5.10;4.60;;;;;;;;;;4955249;28;20709;-82
2023/02/07 14:43:48;;;;;;;5.53;4.87;;;;;;;;;;4989363;28;20279;-82
2023/02/07 14:46:42;;;;;;;5.07;4.67;;;;;;;;;;4991778;28;20213;-82
2023/02/07 14:49:18;;;;;;;7.00;4.57;;;;;;;;;;4992165;28;20337;-82
2023/02/07 14:52:06;;;;;;;4.30;3.93;;;;;;;;;;4976774;28;20253;-82
2023/02/07 14:54:48;;;;;;;4.83;4.40;;;;;;;;;;4968749;28;20221;-85
2023/02/07 14:57:31;;;;;;;5.93;4.30;;;;;;;;;;4975953;28;20308;-82
2023/02/07 15:00:03;;;;;;;4.13;3.73;;;;;;;;;;4957700;28;20310;-85
2023/02/07 15:02:35;;;;;;;4.93;4.43;;;;;;;;;;4986000;28;20334;-83
2023/02/07 15:05:36;;;;;;;4.87;4.47;;;;;;;;;;5020977;28;20250;-82
2023/02/07 15:08:02;;;;;;;4.77;4.37;;;;;;;;;;4972410;28;20731;-82